createdAt,value
2018-03-04T00:00:40.371Z,2.00
2018-03-04T00:03:08.661Z,2.00
2018-03-04T00:05:37.675Z,2.00
2018-03-04T00:08:05.955Z,2.00
2018-03-04T00:10:34.263Z,2.00
2018-03-04T00:13:02.500Z,2.00
2018-03-04T00:15:30.832Z,2.00
2018-03-04T00:17:59.276Z,2.00
2018-03-04T00:20:27.559Z,2.00
2018-03-04T00:22:55.900Z,2.00
2018-03-04T00:25:25.144Z,2.10
2018-03-04T00:27:53.570Z,2.00
2018-03-04T00:30:22.648Z,2.00
2018-03-04T00:32:51.750Z,2.00
2018-03-04T00:35:20.027Z,2.00
2018-03-04T00:37:49.102Z,2.00
2018-03-04T00:40:18.156Z,2.00
2018-03-04T00:42:46.499Z,2.00
2018-03-04T00:45:15.553Z,2.00
2018-03-04T00:47:43.833Z,2.00
2018-03-04T00:50:12.265Z,2.00
2018-03-04T00:52:40.531Z,2.00
2018-03-04T00:55:09.563Z,2.00
2018-03-04T00:57:37.835Z,2.00
2018-03-04T01:00:07.843Z,2.00
2018-03-04T01:02:36.111Z,2.00
2018-03-04T01:05:04.407Z,2.10
2018-03-04T01:07:32.671Z,2.00
2018-03-04T01:10:00.937Z,2.00
2018-03-04T01:12:29.338Z,2.00
2018-03-04T01:14:57.619Z,2.10
2018-03-04T01:17:25.905Z,2.10
2018-03-04T01:19:54.171Z,2.10
2018-03-04T01:22:22.507Z,2.10
2018-03-04T01:24:50.844Z,2.10
2018-03-04T01:27:19.291Z,2.10
2018-03-04T01:29:47.562Z,2.10
2018-03-04T01:32:15.884Z,2.10
2018-03-04T01:34:44.136Z,2.10
2018-03-04T01:37:12.431Z,2.10
2018-03-04T01:39:40.700Z,2.10
2018-03-04T01:42:09.751Z,2.10
2018-03-04T01:44:38.020Z,2.00
2018-03-04T01:47:06.318Z,2.10
2018-03-04T01:49:34.595Z,2.10
2018-03-04T01:52:02.900Z,2.10
2018-03-04T01:54:31.632Z,2.20
2018-03-04T01:56:59.911Z,2.20
2018-03-04T01:59:28.180Z,2.20
2018-03-04T02:01:56.462Z,2.20
2018-03-04T02:04:25.004Z,2.20
2018-03-04T02:06:53.241Z,2.20
2018-03-04T02:09:21.517Z,2.20
2018-03-04T02:11:49.779Z,2.20
2018-03-04T02:14:18.823Z,2.20
2018-03-04T02:16:47.178Z,2.20
2018-03-04T02:19:15.420Z,2.20
2018-03-04T02:21:43.732Z,2.20
2018-03-04T02:24:12.087Z,2.30
2018-03-04T02:26:41.900Z,2.20
2018-03-04T02:29:10.258Z,2.20
2018-03-04T02:31:38.535Z,2.30
2018-03-04T02:34:06.791Z,2.30
2018-03-04T02:36:35.123Z,2.30
2018-03-04T02:39:03.424Z,2.30
2018-03-04T02:41:31.810Z,2.30
2018-03-04T02:44:00.148Z,2.30
2018-03-04T02:46:29.168Z,2.30
2018-03-04T02:48:57.443Z,2.30
2018-03-04T02:51:25.741Z,2.30
2018-03-04T02:53:54.012Z,2.30
2018-03-04T02:56:22.275Z,2.40
2018-03-04T02:58:50.569Z,2.30
2018-03-04T03:01:18.808Z,2.40
2018-03-04T03:03:47.101Z,2.40
2018-03-04T03:06:15.348Z,2.40
2018-03-04T03:08:43.898Z,2.40
2018-03-04T03:11:12.166Z,2.40
2018-03-04T03:13:40.469Z,2.40
2018-03-04T03:16:08.850Z,2.40
2018-03-04T03:18:37.123Z,2.40
2018-03-04T03:21:06.181Z,2.40
2018-03-04T03:23:34.418Z,2.40
2018-03-04T03:26:02.711Z,2.40
2018-03-04T03:28:30.971Z,2.50
2018-03-04T03:30:59.300Z,2.50
2018-03-04T03:33:27.555Z,2.50
2018-03-04T03:35:55.823Z,2.50
2018-03-04T03:38:24.092Z,2.50
2018-03-04T03:40:52.372Z,2.60
2018-03-04T03:43:20.793Z,2.50
2018-03-04T03:45:49.033Z,2.60
2018-03-04T03:48:17.337Z,2.50
2018-03-04T03:50:45.625Z,2.60
2018-03-04T03:53:14.712Z,2.60
2018-03-04T03:55:43.778Z,2.60
2018-03-04T03:58:12.061Z,2.60
2018-03-04T04:00:40.323Z,2.60
2018-03-04T04:03:08.714Z,2.60
2018-03-04T04:05:37.109Z,2.60
2018-03-04T04:08:05.379Z,2.60
2018-03-04T04:10:33.642Z,2.60
2018-03-04T04:13:02.722Z,2.60
2018-03-04T04:15:30.987Z,2.50
2018-03-04T04:17:59.271Z,2.70
2018-03-04T04:20:27.584Z,2.60
2018-03-04T04:22:56.730Z,2.60
2018-03-04T04:25:25.063Z,2.60
2018-03-04T04:27:54.210Z,2.70
2018-03-04T04:30:22.500Z,2.60
2018-03-04T04:32:50.748Z,2.70
2018-03-04T04:35:19.035Z,2.70
2018-03-04T04:37:47.294Z,2.70
2018-03-04T04:40:15.628Z,2.80
2018-03-04T04:42:43.875Z,2.80
2018-03-04T04:45:12.191Z,2.80
2018-03-04T04:47:40.454Z,2.80
2018-03-04T04:50:09.513Z,2.80
2018-03-04T04:52:37.813Z,2.80
2018-03-04T04:55:06.069Z,2.80
2018-03-04T04:57:34.348Z,2.80
2018-03-04T05:00:02.796Z,2.90
2018-03-04T05:02:31.033Z,2.90
2018-03-04T05:04:59.311Z,2.90
2018-03-04T05:07:27.677Z,2.90
2018-03-04T05:09:56.007Z,2.90
2018-03-04T05:12:24.295Z,2.90
2018-03-04T05:14:52.566Z,2.90
2018-03-04T05:17:20.843Z,2.90
2018-03-04T05:19:49.147Z,2.90
2018-03-04T05:22:18.191Z,2.90
2018-03-04T05:24:46.456Z,2.90
2018-03-04T05:27:14.747Z,2.90
2018-03-04T05:29:43.064Z,3.00
2018-03-04T05:32:11.424Z,3.00
2018-03-04T05:34:41.178Z,3.00
2018-03-04T05:37:09.457Z,2.90
2018-03-04T05:39:37.836Z,3.00
2018-03-04T05:42:06.135Z,3.00
2018-03-04T05:44:34.431Z,3.00
2018-03-04T05:47:02.727Z,3.00
2018-03-04T05:49:31.008Z,3.00
2018-03-04T05:52:00.079Z,3.10
2018-03-04T05:54:28.379Z,3.00
2018-03-04T05:56:57.426Z,3.10
2018-03-04T05:59:25.696Z,3.00
2018-03-04T06:01:53.951Z,3.10
2018-03-04T06:04:22.227Z,3.10
2018-03-04T06:06:50.523Z,3.10
2018-03-04T06:09:18.839Z,3.10
2018-03-04T06:11:47.162Z,3.10
2018-03-04T06:14:15.434Z,3.10
2018-03-04T06:16:43.715Z,3.10
2018-03-04T06:19:11.974Z,3.10
2018-03-04T06:21:40.317Z,3.10
2018-03-04T06:24:09.529Z,3.10
2018-03-04T06:26:38.999Z,3.10
2018-03-04T06:29:07.270Z,3.10
2018-03-04T06:31:35.754Z,3.10
2018-03-04T06:34:04.036Z,3.00
2018-03-04T06:36:32.316Z,3.00
2018-03-04T06:39:00.607Z,3.00
2018-03-04T06:41:28.960Z,2.90
2018-03-04T06:43:58.019Z,3.00
2018-03-04T06:46:26.288Z,2.90
2018-03-04T06:48:54.677Z,3.00
2018-03-04T06:51:23.049Z,3.00
2018-03-04T06:53:51.463Z,3.00
2018-03-04T06:56:19.734Z,3.00
2018-03-04T06:58:47.982Z,3.00
2018-03-04T07:01:16.284Z,3.10
2018-03-04T07:03:45.367Z,3.10
2018-03-04T07:06:13.773Z,3.10
2018-03-04T07:08:41.998Z,3.20
2018-03-04T07:11:10.285Z,3.30
2018-03-04T07:13:38.559Z,3.40
2018-03-04T07:16:06.882Z,3.40
2018-03-04T07:18:35.135Z,3.50
2018-03-04T07:21:03.428Z,3.50
2018-03-04T07:23:31.738Z,3.50
2018-03-04T07:26:00.046Z,3.60
2018-03-04T07:28:28.512Z,3.60
2018-03-04T07:30:56.787Z,3.60
2018-03-04T07:33:25.123Z,3.70
2018-03-04T07:35:53.351Z,3.70
2018-03-04T07:38:21.615Z,3.80
2018-03-04T07:40:49.888Z,3.80
2018-03-04T07:43:18.407Z,3.90
2018-03-04T07:45:46.799Z,4.00
2018-03-04T07:48:16.624Z,4.10
2018-03-04T07:50:44.993Z,4.10
2018-03-04T07:53:13.285Z,4.30
2018-03-04T07:55:42.302Z,4.40
2018-03-04T07:58:10.619Z,4.40
2018-03-04T08:00:39.720Z,4.50
2018-03-04T08:03:09.380Z,4.50
2018-03-04T08:05:37.905Z,4.50
2018-03-04T08:08:06.181Z,4.50
2018-03-04T08:10:34.471Z,4.60
2018-03-04T08:13:03.491Z,4.80
2018-03-04T08:15:31.802Z,4.70
2018-03-04T08:18:00.868Z,5.00
2018-03-04T08:20:29.192Z,5.00
2018-03-04T08:22:58.293Z,5.10
2018-03-04T08:25:32.175Z,5.10
2018-03-04T08:28:12.443Z,5.20
2018-03-04T08:30:40.795Z,5.20
2018-03-04T08:33:09.197Z,5.20
2018-03-04T08:35:37.469Z,5.20
2018-03-04T08:38:05.726Z,5.20
2018-03-04T08:40:34.022Z,5.30
2018-03-04T08:43:03.118Z,5.40
2018-03-04T08:45:32.199Z,5.40
2018-03-04T08:48:00.587Z,5.30
2018-03-04T08:50:28.920Z,5.50
2018-03-04T08:52:57.191Z,5.60
2018-03-04T08:55:25.464Z,5.70
2018-03-04T08:57:53.760Z,5.70
2018-03-04T09:00:22.007Z,5.80
2018-03-04T09:02:50.335Z,6.00
2018-03-04T09:05:18.768Z,6.00
2018-03-04T09:07:47.999Z,5.90
2018-03-04T09:10:16.251Z,5.90
2018-03-04T09:12:44.535Z,5.80
2018-03-04T09:15:12.911Z,5.90
2018-03-04T09:17:41.196Z,5.80
2018-03-04T09:20:09.498Z,5.80
2018-03-04T09:22:37.889Z,5.90
2018-03-04T09:25:06.905Z,5.90
2018-03-04T09:27:35.198Z,5.90
2018-03-04T09:30:03.488Z,5.90
2018-03-04T09:32:32.548Z,6.00
2018-03-04T09:35:00.883Z,6.00
2018-03-04T09:37:29.136Z,6.10
2018-03-04T09:39:57.442Z,6.10
2018-03-04T09:42:26.473Z,6.30
2018-03-04T09:44:54.731Z,6.20
2018-03-04T09:47:22.979Z,6.40
2018-03-04T09:49:51.278Z,6.30
2018-03-04T09:52:19.582Z,6.40
2018-03-04T09:54:47.975Z,6.50
2018-03-04T09:57:17.001Z,6.50
2018-03-04T09:59:45.251Z,6.60
2018-03-04T10:02:15.058Z,6.80
2018-03-04T10:04:43.300Z,6.80
2018-03-04T10:07:11.560Z,7.00
2018-03-04T10:09:39.812Z,6.90
2018-03-04T10:12:08.940Z,7.10
2018-03-04T10:14:37.184Z,7.00
2018-03-04T10:17:06.237Z,7.50
2018-03-04T10:19:34.552Z,7.50
2018-03-04T10:22:03.605Z,7.40
2018-03-04T10:24:31.877Z,7.30
2018-03-04T10:27:00.120Z,7.30
2018-03-04T10:29:28.383Z,7.30
2018-03-04T10:31:57.432Z,7.20
2018-03-04T10:34:27.228Z,7.20
2018-03-04T10:36:55.495Z,7.20
2018-03-04T10:39:23.787Z,7.40
2018-03-04T10:41:52.072Z,7.60
2018-03-04T10:44:20.368Z,7.80
2018-03-04T10:46:49.410Z,8.00
2018-03-04T10:49:17.692Z,7.90
2018-03-04T10:51:45.983Z,8.10
2018-03-04T10:54:14.238Z,8.10
2018-03-04T10:56:42.496Z,8.30
2018-03-04T10:59:10.793Z,8.60
2018-03-04T11:01:39.110Z,8.60
2018-03-04T11:04:07.396Z,8.60
2018-03-04T11:06:35.698Z,8.70
2018-03-04T11:09:04.823Z,8.80
2018-03-04T11:11:33.104Z,8.70
2018-03-04T11:14:01.374Z,8.60
2018-03-04T11:16:29.676Z,8.80
2018-03-04T11:18:57.927Z,8.90
2018-03-04T11:21:26.242Z,8.90
2018-03-04T11:23:55.287Z,9.20
2018-03-04T11:26:23.557Z,9.10
2018-03-04T11:28:51.973Z,9.20
2018-03-04T11:31:20.244Z,9.30
2018-03-04T11:33:48.549Z,9.30
2018-03-04T11:36:16.806Z,9.40
2018-03-04T11:38:45.074Z,9.50
2018-03-04T11:41:13.504Z,9.50
2018-03-04T11:43:41.787Z,9.60
2018-03-04T11:46:10.075Z,9.60
2018-03-04T11:48:38.375Z,9.60
2018-03-04T11:51:06.728Z,9.60
2018-03-04T11:53:34.992Z,9.60
2018-03-04T11:56:03.306Z,9.70
2018-03-04T11:58:31.559Z,9.70
2018-03-04T12:00:59.831Z,9.70
2018-03-04T12:03:28.148Z,9.70
2018-03-04T12:05:57.186Z,9.70
2018-03-04T12:08:25.599Z,9.60
2018-03-04T12:10:53.834Z,9.70
2018-03-04T12:13:22.172Z,9.60
2018-03-04T12:15:50.500Z,9.60
2018-03-04T12:18:18.924Z,9.70
2018-03-04T12:20:47.974Z,9.70
2018-03-04T12:23:16.242Z,9.70
2018-03-04T12:25:44.607Z,9.80
2018-03-04T12:28:12.900Z,9.90
2018-03-04T12:30:41.215Z,9.90
2018-03-04T12:33:09.578Z,10.00
2018-03-04T12:35:37.992Z,10.10
2018-03-04T12:38:07.047Z,10.30
2018-03-04T12:40:35.350Z,10.30
2018-03-04T12:43:03.697Z,10.40
2018-03-04T12:45:31.969Z,10.50
2018-03-04T12:48:00.215Z,10.50
2018-03-04T12:50:28.483Z,10.50
2018-03-04T12:52:56.769Z,10.50
2018-03-04T12:55:25.091Z,10.50
2018-03-04T12:57:54.120Z,10.70
2018-03-04T13:00:22.664Z,10.60
2018-03-04T13:02:51.698Z,10.80
2018-03-04T13:05:19.988Z,10.70
2018-03-04T13:07:48.236Z,10.70
2018-03-04T13:10:16.500Z,10.80
2018-03-04T13:12:44.756Z,10.80
2018-03-04T13:15:13.808Z,10.80
2018-03-04T13:17:42.173Z,10.70
2018-03-04T13:20:10.514Z,10.80
2018-03-04T13:22:39.695Z,10.80
2018-03-04T13:25:08.722Z,10.90
2018-03-04T13:27:37.016Z,10.80
2018-03-04T13:30:05.298Z,10.90
2018-03-04T13:32:33.626Z,11.00
2018-03-04T13:35:02.645Z,11.10
2018-03-04T13:37:30.935Z,11.00
2018-03-04T13:39:59.212Z,11.10
2018-03-04T13:42:27.491Z,11.20
2018-03-04T13:44:55.751Z,11.20
2018-03-04T13:47:24.036Z,11.30
2018-03-04T13:49:52.309Z,11.30
2018-03-04T13:52:20.701Z,11.30
2018-03-04T13:54:49.045Z,11.30
2018-03-04T13:57:17.354Z,11.30
2018-03-04T13:59:45.608Z,11.30
2018-03-04T14:02:13.910Z,11.40
2018-03-04T14:04:42.283Z,11.40
2018-03-04T14:07:12.545Z,11.40
2018-03-04T14:09:40.911Z,11.40
2018-03-04T14:12:09.288Z,11.50
2018-03-04T14:14:37.858Z,11.50
2018-03-04T14:17:06.114Z,11.50
2018-03-04T14:19:34.376Z,11.50
2018-03-04T14:22:02.646Z,11.50
2018-03-04T14:24:30.941Z,11.50
2018-03-04T14:26:59.375Z,11.60
2018-03-04T14:29:27.664Z,11.60
2018-03-04T14:31:55.947Z,11.60
2018-03-04T14:34:24.291Z,11.50
2018-03-04T14:36:53.364Z,11.50
2018-03-04T14:39:23.302Z,11.50
2018-03-04T14:41:51.568Z,11.50
2018-03-04T14:44:19.877Z,11.50
2018-03-04T14:46:48.126Z,11.50
2018-03-04T14:49:16.568Z,11.50
2018-03-04T14:51:45.612Z,11.40
2018-03-04T14:54:13.898Z,11.40
2018-03-04T14:56:42.207Z,11.40
2018-03-04T14:59:11.277Z,11.20
2018-03-04T15:01:39.607Z,11.20
2018-03-04T15:04:08.632Z,11.10
2018-03-04T15:06:36.919Z,11.10
2018-03-04T15:09:05.186Z,11.20
2018-03-04T15:11:33.465Z,11.10
2018-03-04T15:14:01.742Z,11.10
2018-03-04T15:16:29.995Z,11.10
2018-03-04T15:18:58.459Z,11.10
2018-03-04T15:21:26.813Z,11.10
2018-03-04T15:23:55.121Z,11.10
2018-03-04T15:26:23.468Z,11.10
2018-03-04T15:28:51.736Z,11.10
2018-03-04T15:31:20.938Z,11.10
2018-03-04T15:33:49.984Z,11.10
2018-03-04T15:36:18.234Z,11.00
2018-03-04T15:38:46.647Z,11.10
2018-03-04T15:41:14.956Z,11.10
2018-03-04T15:43:43.338Z,11.00
2018-03-04T15:46:11.673Z,11.00
2018-03-04T15:48:39.964Z,11.00
2018-03-04T15:51:08.250Z,11.00
2018-03-04T15:53:36.550Z,10.90
2018-03-04T15:56:04.939Z,10.90
2018-03-04T15:58:33.374Z,10.80
2018-03-04T16:01:02.454Z,10.80
2018-03-04T16:03:30.756Z,10.80
2018-03-04T16:05:59.038Z,10.80
2018-03-04T16:08:27.314Z,10.80
2018-03-04T16:10:55.568Z,10.80
2018-03-04T16:13:24.017Z,10.70
2018-03-04T16:15:52.419Z,10.70
2018-03-04T16:18:20.748Z,10.70
2018-03-04T16:20:49.030Z,10.70
2018-03-04T16:23:17.302Z,10.60
2018-03-04T16:25:45.604Z,10.60
2018-03-04T16:28:13.947Z,10.60
2018-03-04T16:30:42.286Z,10.60
2018-03-04T16:33:11.534Z,10.50
2018-03-04T16:35:39.862Z,10.40
2018-03-04T16:38:08.144Z,10.50
2018-03-04T16:40:36.429Z,10.50
2018-03-04T16:43:05.478Z,10.40
2018-03-04T16:45:33.791Z,10.30
2018-03-04T16:48:02.090Z,10.30
2018-03-04T16:50:31.118Z,10.30
2018-03-04T16:52:59.383Z,10.20
2018-03-04T16:55:27.675Z,10.20
2018-03-04T16:57:55.994Z,10.20
2018-03-04T17:00:24.377Z,10.20
2018-03-04T17:02:52.655Z,10.10
2018-03-04T17:05:21.841Z,10.10
2018-03-04T17:07:51.524Z,10.10
2018-03-04T17:10:19.804Z,10.00
2018-03-04T17:12:48.892Z,10.00
2018-03-04T17:15:17.287Z,9.90
2018-03-04T17:17:45.575Z,9.90
2018-03-04T17:20:14.612Z,9.80
2018-03-04T17:22:42.869Z,9.80
2018-03-04T17:25:11.179Z,9.80
2018-03-04T17:27:40.283Z,9.80
2018-03-04T17:30:08.559Z,9.80
2018-03-04T17:32:36.819Z,9.70
2018-03-04T17:35:05.149Z,9.60
2018-03-04T17:37:33.473Z,9.60
2018-03-04T17:40:01.670Z,9.50
2018-03-04T17:42:30.069Z,9.40
2018-03-04T17:44:59.092Z,9.30
2018-03-04T17:47:27.436Z,9.20
2018-03-04T17:49:56.473Z,9.00
2018-03-04T17:52:24.786Z,9.00
2018-03-04T17:54:53.305Z,9.00
2018-03-04T17:57:21.601Z,8.90
2018-03-04T17:59:49.848Z,8.80
2018-03-04T18:02:18.901Z,8.90
2018-03-04T18:04:47.239Z,8.80
2018-03-04T18:07:15.529Z,8.80
2018-03-04T18:09:43.790Z,8.80
2018-03-04T18:12:12.084Z,8.80
2018-03-04T18:14:40.341Z,8.80
2018-03-04T18:17:08.651Z,8.80
2018-03-04T18:19:37.716Z,8.80
2018-03-04T18:22:13.175Z,8.70
2018-03-04T18:24:41.439Z,8.70
2018-03-04T18:27:09.812Z,8.70
2018-03-04T18:29:38.139Z,8.70
2018-03-04T18:32:06.466Z,8.70
2018-03-04T18:34:34.755Z,8.70
2018-03-04T18:37:03.000Z,8.70
2018-03-04T18:39:31.367Z,8.60
2018-03-04T18:41:59.647Z,8.60
2018-03-04T18:44:27.931Z,8.60
2018-03-04T18:46:56.193Z,8.60
2018-03-04T18:49:24.473Z,8.60
2018-03-04T18:51:52.750Z,8.60
2018-03-04T18:54:21.025Z,8.50
2018-03-04T18:56:49.279Z,8.50
2018-03-04T18:59:17.554Z,8.50
2018-03-04T19:01:45.816Z,8.50
2018-03-04T19:04:14.103Z,8.50
2018-03-04T19:06:43.381Z,8.50
2018-03-04T19:09:11.675Z,8.40
2018-03-04T19:11:40.269Z,8.40
2018-03-04T19:14:09.723Z,8.30
2018-03-04T19:16:38.176Z,8.30
2018-03-04T19:19:06.445Z,8.30
2018-03-04T19:21:34.756Z,8.30
2018-03-04T19:24:03.015Z,8.20
2018-03-04T19:26:31.286Z,8.20
2018-03-04T19:28:59.602Z,8.10
2018-03-04T19:31:28.022Z,8.00
2018-03-04T19:33:56.306Z,7.90
2018-03-04T19:36:24.568Z,7.90
2018-03-04T19:38:52.847Z,7.90
2018-03-04T19:41:21.354Z,7.90
2018-03-04T19:43:49.594Z,7.90
2018-03-04T19:46:17.880Z,7.90
2018-03-04T19:48:46.147Z,7.80
2018-03-04T19:51:14.410Z,7.80
2018-03-04T19:53:43.594Z,7.70
2018-03-04T19:56:11.875Z,7.60
2018-03-04T19:58:40.179Z,7.70
2018-03-04T20:01:08.440Z,7.70
2018-03-04T20:03:36.752Z,7.70
2018-03-04T20:06:05.053Z,7.70
2018-03-04T20:08:33.437Z,7.70
2018-03-04T20:11:02.572Z,7.80
2018-03-04T20:13:30.918Z,7.70
2018-03-04T20:15:59.984Z,7.80
2018-03-04T20:18:28.879Z,7.70
2018-03-04T20:20:57.164Z,7.80
2018-03-04T20:23:26.207Z,7.80
2018-03-04T20:25:54.533Z,7.80
2018-03-04T20:28:22.827Z,7.90
2018-03-04T20:30:51.452Z,7.90
2018-03-04T20:33:19.727Z,7.90
2018-03-04T20:35:47.991Z,7.90
2018-03-04T20:38:16.330Z,7.90
2018-03-04T20:40:44.602Z,7.80
2018-03-04T20:43:13.628Z,7.80
2018-03-04T20:45:41.918Z,7.80
2018-03-04T20:48:10.263Z,7.80
2018-03-04T20:50:38.682Z,7.80
2018-03-04T20:53:06.949Z,7.80
2018-03-04T20:55:35.352Z,7.80
2018-03-04T20:58:03.672Z,7.80
2018-03-04T21:00:31.967Z,7.80
2018-03-04T21:03:00.292Z,7.80
2018-03-04T21:05:28.587Z,7.80
2018-03-04T21:07:57.618Z,7.80
2018-03-04T21:10:25.958Z,7.80
2018-03-04T21:12:54.318Z,7.90
2018-03-04T21:15:23.379Z,7.90
2018-03-04T21:17:51.675Z,7.90
2018-03-04T21:20:19.981Z,7.90
2018-03-04T21:22:49.050Z,8.00
2018-03-04T21:25:17.309Z,7.90
2018-03-04T21:27:45.596Z,8.00
2018-03-04T21:30:13.883Z,8.00
2018-03-04T21:32:42.186Z,8.00
2018-03-04T21:35:11.208Z,7.90
2018-03-04T21:37:39.462Z,7.90
2018-03-04T21:40:07.755Z,7.90
2018-03-04T21:42:36.051Z,7.90
2018-03-04T21:45:04.301Z,7.90
2018-03-04T21:47:32.598Z,7.80
2018-03-04T21:50:00.852Z,7.80
2018-03-04T21:52:29.208Z,7.80
2018-03-04T21:54:57.468Z,7.80
2018-03-04T21:57:25.757Z,7.70
2018-03-04T21:59:56.736Z,7.80
2018-03-04T22:02:24.996Z,7.80
2018-03-04T22:04:53.277Z,7.80
2018-03-04T22:07:21.536Z,7.80
2018-03-04T22:09:49.781Z,7.80
2018-03-04T22:12:18.068Z,7.80
2018-03-04T22:14:46.348Z,7.80
2018-03-04T22:17:14.606Z,7.80
2018-03-04T22:19:42.975Z,7.80
2018-03-04T22:22:12.249Z,7.80
2018-03-04T22:24:40.498Z,7.70
2018-03-04T22:27:08.772Z,7.80
2018-03-04T22:29:37.045Z,7.80
2018-03-04T22:32:05.380Z,7.80
2018-03-04T22:34:33.599Z,7.90
2018-03-04T22:37:01.877Z,7.90
2018-03-04T22:39:30.134Z,7.90
2018-03-04T22:41:58.418Z,8.00
2018-03-04T22:44:26.754Z,7.90
2018-03-04T22:46:54.995Z,8.00
2018-03-04T22:49:23.252Z,8.00
2018-03-04T22:51:51.499Z,8.00
2018-03-04T22:54:19.783Z,8.00
2018-03-04T22:56:48.037Z,7.90
2018-03-04T22:59:16.263Z,7.90
2018-03-04T23:01:44.532Z,7.90
2018-03-04T23:04:12.876Z,7.90
2018-03-04T23:06:41.256Z,7.90
2018-03-04T23:09:10.286Z,7.70
2018-03-04T23:11:38.572Z,7.70
2018-03-04T23:14:06.823Z,7.60
2018-03-04T23:16:35.089Z,7.50
2018-03-04T23:19:03.327Z,7.50
2018-03-04T23:21:32.357Z,7.40
2018-03-04T23:24:00.846Z,7.40
2018-03-04T23:26:29.084Z,7.40
2018-03-04T23:28:58.078Z,7.50
2018-03-04T23:31:27.078Z,7.50
2018-03-04T23:33:56.091Z,7.40
2018-03-04T23:36:25.141Z,7.40
2018-03-04T23:38:53.418Z,7.40
2018-03-04T23:41:22.420Z,7.40
2018-03-04T23:43:51.424Z,7.40
2018-03-04T23:46:20.434Z,7.40
2018-03-04T23:48:48.643Z,7.30
2018-03-04T23:51:17.695Z,7.40
2018-03-04T23:53:45.931Z,7.30
2018-03-04T23:56:14.191Z,7.40
2018-03-04T23:58:42.435Z,7.30
